Time;durP1;ratioP1;P1;durP2;ratioP2;P2;SDS_P1;SDS_P2;PMS_P1;PMS_P2;Temp;Humidity;BMP_temperature;BMP_pressure;BME280_temperature;BME280_humidity;BME280_pressure;Samples;Min_cycle;Max_cycle;Signal;HPM_P1;HPM_P2
2023/01/29 00:00:37;;;;;;;8.90;4.65;;;4.30;99.90;;;;;;4183839;28;20452;-81
2023/01/29 00:02:39;;;;;;;9.77;4.78;;;4.40;99.90;;;;;;4182472;28;20437;-81
2023/01/29 00:04:40;;;;;;;8.85;3.40;;;4.40;99.90;;;;;;4183125;28;20099;-82
2023/01/29 00:06:42;;;;;;;8.07;4.03;;;4.30;99.90;;;;;;4183818;28;20472;-81
2023/01/29 00:08:45;;;;;;;7.53;4.38;;;4.50;99.90;;;;;;4184049;28;20057;-81
2023/01/29 00:10:46;;;;;;;14.10;3.67;;;4.30;99.90;;;;;;4184278;28;20405;-81
2023/01/29 00:12:48;;;;;;;9.50;4.70;;;5.20;99.90;;;;;;4185342;28;20551;-81
2023/01/29 00:14:49;;;;;;;10.13;4.30;;;4.30;99.90;;;;;;4184961;28;20072;-81
2023/01/29 00:16:50;;;;;;;6.85;3.70;;;4.90;99.90;;;;;;4183935;28;20049;-82
2023/01/29 00:18:52;;;;;;;8.52;4.10;;;4.20;99.90;;;;;;4183787;28;20215;-81
2023/01/29 00:20:54;;;;;;;9.90;4.50;;;4.80;99.90;;;;;;4183656;28;20602;-81
2023/01/29 00:22:55;;;;;;;10.02;4.75;;;4.20;99.90;;;;;;4183298;28;20049;-81
2023/01/29 00:24:55;;;;;;;11.00;5.45;;;4.30;99.90;;;;;;4184532;28;20072;-81
2023/01/29 00:26:56;;;;;;;12.60;4.35;;;4.30;99.90;;;;;;4183148;28;20045;-81
2023/01/29 00:28:59;;;;;;;10.13;3.83;;;4.20;99.90;;;;;;4184094;28;20108;-81
2023/01/29 00:31:12;;;;;;;7.97;4.22;;;4.20;99.90;;;;;;4184068;28;20477;-81
2023/01/29 00:33:12;;;;;;;10.60;4.15;;;4.20;99.90;;;;;;4181987;28;20057;-81
2023/01/29 00:35:13;;;;;;;16.25;5.15;;;4.20;99.90;;;;;;4182257;28;20048;-81
2023/01/29 00:37:15;;;;;;;10.27;4.97;;;4.20;99.90;;;;;;4183477;28;20052;-81
2023/01/29 00:39:15;;;;;;;12.02;5.65;;;4.20;99.90;;;;;;4183611;28;20044;-82
2023/01/29 00:45:55;;;;;;;15.32;5.32;;;4.30;99.90;;;;;;4182051;28;20057;-81
2023/01/29 00:47:56;;;;;;;12.75;4.95;;;4.30;99.90;;;;;;4183308;28;20073;-81
2023/01/29 00:50:03;;;;;;;9.63;5.10;;;4.30;99.90;;;;;;4183022;28;20045;-81
2023/01/29 00:52:25;;;;;;;11.20;4.60;;;4.20;99.90;;;;;;4183277;28;20466;-81
2023/01/29 00:54:24;;;;;;;9.63;4.95;;;4.90;99.90;;;;;;4182333;28;20052;-81
2023/01/29 00:56:26;;;;;;;10.73;4.93;;;4.30;99.90;;;;;;4180954;28;20444;-81
2023/01/29 00:58:33;;;;;;;10.63;5.53;;;4.20;99.90;;;;;;4181708;28;20049;-81
2023/01/29 01:00:33;;;;;;;9.77;5.00;;;4.20;99.90;;;;;;4182801;28;20081;-81
2023/01/29 01:04:55;;;;;;;10.85;5.35;;;4.20;99.90;;;;;;4181684;28;20061;-81
2023/01/29 01:06:57;;;;;;;10.88;4.97;;;5.00;99.90;;;;;;4181612;28;20047;-81
2023/01/29 01:11:18;;;;;;;10.30;5.70;;;4.90;99.90;;;;;;4182336;28;20409;-81
2023/01/29 01:13:19;;;;;;;11.80;4.97;;;4.20;99.90;;;;;;4181368;28;20040;-81
2023/01/29 01:15:23;;;;;;;10.75;4.90;;;4.20;99.90;;;;;;4181136;28;20522;-81
2023/01/29 01:17:25;;;;;;;11.07;5.68;;;4.20;99.90;;;;;;4164719;28;20049;-81
2023/01/29 01:19:25;;;;;;;11.23;5.78;;;4.30;99.90;;;;;;4181180;28;20103;-81
2023/01/29 01:21:26;;;;;;;11.02;6.00;;;4.20;99.90;;;;;;4182499;28;20045;-81
2023/01/29 01:23:27;;;;;;;13.40;6.18;;;4.40;99.90;;;;;;4164099;28;20049;-81
2023/01/29 01:25:27;;;;;;;10.18;5.15;;;4.40;99.90;;;;;;4181141;28;20045;-81
2023/01/29 01:27:29;;;;;;;13.68;6.00;;;4.20;99.90;;;;;;4164914;28;20049;-81
2023/01/29 01:29:30;;;;;;;11.93;6.10;;;4.10;99.90;;;;;;4164792;28;20123;-81
2023/01/29 01:31:30;;;;;;;12.10;5.45;;;4.10;99.90;;;;;;4182221;28;20041;-81
2023/01/29 01:33:32;;;;;;;13.23;5.47;;;4.10;99.90;;;;;;4164033;28;20391;-82
2023/01/29 01:35:34;;;;;;;12.65;6.15;;;4.10;99.90;;;;;;4180974;28;20513;-82
2023/01/29 01:37:37;;;;;;;17.65;6.03;;;4.50;99.90;;;;;;4180290;28;20052;-81
2023/01/29 01:39:38;;;;;;;11.55;5.90;;;5.00;99.90;;;;;;4182101;28;20083;-81
2023/01/29 01:41:38;;;;;;;10.50;6.13;;;4.10;99.90;;;;;;4181046;28;20048;-81
2023/01/29 01:43:50;;;;;;;11.82;5.95;;;4.10;99.90;;;;;;4180028;28;20411;-81
2023/01/29 01:45:50;;;;;;;9.35;5.28;;;4.10;99.90;;;;;;4181424;28;20204;-81
2023/01/29 01:48:06;;;;;;;12.95;6.07;;;4.10;99.90;;;;;;4180985;28;20410;-81
2023/01/29 01:50:17;;;;;;;14.85;6.03;;;4.10;99.90;;;;;;4176631;28;20046;-81
2023/01/29 01:52:19;;;;;;;10.70;5.57;;;4.20;99.90;;;;;;4163705;28;20053;-81
2023/01/29 01:54:28;;;;;;;14.93;6.15;;;4.20;99.90;;;;;;4165632;28;20045;-81
2023/01/29 01:56:37;;;;;;;13.20;6.35;;;4.20;99.90;;;;;;4165250;28;20050;-81
2023/01/29 01:58:46;;;;;;;13.07;6.60;;;4.10;99.90;;;;;;4164337;28;20430;-81
2023/01/29 02:00:47;;;;;;;15.60;7.15;;;4.10;99.90;;;;;;4165261;28;20045;-81
2023/01/29 02:09:55;;;;;;;13.18;6.32;;;4.20;99.90;;;;;;4164015;28;20115;-81
2023/01/29 02:11:55;;;;;;;14.23;5.93;;;4.10;99.90;;;;;;4164008;28;20486;-81
2023/01/29 02:13:57;;;;;;;14.75;6.97;;;4.20;99.90;;;;;;4147912;28;20062;-80
2023/01/29 02:15:58;;;;;;;13.15;6.22;;;4.10;99.90;;;;;;4164259;28;20053;-81
2023/01/29 02:17:59;;;;;;;11.75;6.22;;;4.80;99.90;;;;;;4147375;28;20046;-81
2023/01/29 02:20:32;;;;;;;12.50;6.22;;;4.20;99.90;;;;;;4147738;28;20049;-81
2023/01/29 02:23:06;;;;;;;12.98;6.38;;;4.20;99.90;;;;;;4121045;28;20414;-80
2023/01/29 02:25:26;;;;;;;13.35;6.85;;;4.20;99.90;;;;;;4164237;28;20046;-81
2023/01/29 02:27:59;;;;;;;16.80;7.55;;;4.20;99.90;;;;;;4164018;28;20057;-81
2023/01/29 02:30:10;;;;;;;14.35;7.20;;;4.20;99.90;;;;;;4165269;28;20052;-81
2023/01/29 02:32:33;;;;;;;14.95;7.25;;;4.20;99.90;;;;;;4164689;28;20094;-81
2023/01/29 02:37:12;;;;;;;15.27;7.38;;;4.20;99.90;;;;;;4165615;28;20444;-81
2023/01/29 02:39:35;;;;;;;15.38;7.47;;;4.20;99.90;;;;;;4164010;28;20171;-81
2023/01/29 02:42:10;;;;;;;16.35;8.35;;;4.20;99.90;;;;;;4163840;28;20046;-81
2023/01/29 02:44:38;;;;;;;15.60;6.47;;;4.20;99.90;;;;;;4164884;28;20490;-81
2023/01/29 02:46:45;;;;;;;18.63;7.18;;;4.20;99.90;;;;;;4165166;28;20046;-81
2023/01/29 02:49:00;;;;;;;15.77;7.35;;;4.20;99.90;;;;;;4165508;28;20456;-82
2023/01/29 02:51:07;;;;;;;14.73;7.60;;;4.20;99.90;;;;;;4168354;28;20057;-81
2023/01/29 02:53:24;;;;;;;15.27;7.95;;;4.30;99.90;;;;;;4167067;28;20049;-81
2023/01/29 02:55:38;;;;;;;14.50;7.50;;;4.10;99.90;;;;;;4168245;28;21768;-80
2023/01/29 02:57:43;;;;;;;17.42;8.65;;;4.10;99.90;;;;;;4168678;28;20041;-81
2023/01/29 03:00:03;;;;;;;16.27;7.53;;;4.10;99.90;;;;;;4167095;28;20522;-81
2023/01/29 03:02:15;;;;;;;14.45;6.95;;;4.10;99.90;;;;;;4168814;28;20116;-81
2023/01/29 03:04:21;;;;;;;16.58;7.82;;;4.20;99.90;;;;;;4168249;28;20045;-81
2023/01/29 03:06:31;;;;;;;14.88;7.22;;;4.50;99.90;;;;;;4168299;28;20052;-80
2023/01/29 03:08:44;;;;;;;16.00;7.22;;;4.90;99.90;;;;;;4168608;28;20056;-81
2023/01/29 03:10:55;;;;;;;17.90;7.38;;;4.00;99.90;;;;;;4168117;28;20041;-81
2023/01/29 03:13:19;;;;;;;19.52;8.15;;;4.70;99.90;;;;;;4167972;28;20045;-81
2023/01/29 03:15:28;;;;;;;19.45;8.32;;;4.00;99.90;;;;;;4168345;28;20061;-80
2023/01/29 03:17:34;;;;;;;15.40;7.95;;;4.00;99.90;;;;;;4166912;28;20041;-81
2023/01/29 03:19:42;;;;;;;17.88;9.32;;;5.00;99.90;;;;;;4168450;28;20424;-81
2023/01/29 03:21:50;;;;;;;21.30;8.75;;;4.50;99.90;;;;;;4167441;28;20037;-81
2023/01/29 03:33:25;;;;;;;16.70;7.78;;;4.20;99.90;;;;;;4167825;28;20053;-81
2023/01/29 03:35:35;;;;;;;19.42;9.25;;;4.00;99.90;;;;;;4166902;28;20041;-81
2023/01/29 03:37:44;;;;;;;19.50;9.07;;;4.30;99.90;;;;;;4167836;28;20113;-81
2023/01/29 03:39:45;;;;;;;20.38;9.55;;;3.90;99.90;;;;;;4167777;28;20048;-81
2023/01/29 03:42:12;;;;;;;20.50;10.35;;;3.90;99.90;;;;;;4167971;28;20076;-81
2023/01/29 03:44:48;;;;;;;19.33;9.82;;;3.90;99.90;;;;;;4168100;28;20041;-81
2023/01/29 03:46:58;;;;;;;18.33;8.73;;;3.90;99.90;;;;;;4116764;28;20043;-81
2023/01/29 03:49:17;;;;;;;26.70;9.60;;;3.90;99.90;;;;;;4148337;28;20064;-81
2023/01/29 03:51:29;;;;;;;20.25;9.75;;;3.90;99.90;;;;;;4180142;28;20064;-81
2023/01/29 03:53:39;;;;;;;22.30;9.98;;;3.90;99.90;;;;;;4183975;28;20507;-81
2023/01/29 03:55:54;;;;;;;27.70;11.93;;;3.90;99.90;;;;;;4184128;28;20057;-81
2023/01/29 03:58:37;;;;;;;21.58;10.85;;;4.50;99.90;;;;;;4182747;28;20455;-81
2023/01/29 04:00:47;;;;;;;26.42;11.57;;;3.90;99.90;;;;;;4183988;28;20563;-81
2023/01/29 04:03:17;;;;;;;22.83;10.60;;;4.10;99.90;;;;;;4184193;28;20040;-81
2023/01/29 04:05:23;;;;;;;25.85;10.90;;;3.90;99.90;;;;;;4183816;28;20045;-81
2023/01/29 04:07:28;;;;;;;25.48;11.65;;;3.90;99.90;;;;;;4183994;28;20051;-81
2023/01/29 04:10:06;;;;;;;23.98;12.48;;;3.90;99.90;;;;;;4183840;28;20120;-81
2023/01/29 04:12:09;;;;;;;24.90;12.25;;;3.90;99.90;;;;;;4181445;28;20095;-81
2023/01/29 04:14:11;;;;;;;23.92;12.07;;;4.80;99.90;;;;;;4183775;28;20045;-81
2023/01/29 04:16:19;;;;;;;25.40;12.25;;;4.70;99.90;;;;;;4184076;28;20510;-80
2023/01/29 04:18:20;;;;;;;24.02;11.93;;;4.70;99.90;;;;;;4183808;28;20045;-81
2023/01/29 04:20:22;;;;;;;28.05;12.32;;;3.90;99.90;;;;;;4182397;28;20493;-81
2023/01/29 04:22:37;;;;;;;25.35;12.10;;;3.90;99.90;;;;;;4184009;28;20052;-80
2023/01/29 04:24:39;;;;;;;28.25;12.50;;;3.90;99.90;;;;;;4183998;28;20048;-80
2023/01/29 04:26:59;;;;;;;26.45;13.20;;;4.00;99.90;;;;;;4183986;28;20048;-80
2023/01/29 04:28:59;;;;;;;29.02;12.30;;;3.90;99.90;;;;;;4183257;28;20434;-81
2023/01/29 04:31:09;;;;;;;27.27;12.00;;;4.00;99.90;;;;;;4183268;28;20045;-81
2023/01/29 04:33:34;;;;;;;29.40;13.10;;;3.90;99.90;;;;;;4183572;28;20068;-80
2023/01/29 04:35:48;;;;;;;27.42;12.30;;;4.00;99.90;;;;;;4182266;28;20037;-81
2023/01/29 04:38:08;;;;;;;26.85;12.23;;;4.60;99.90;;;;;;4183713;28;20037;-81
2023/01/29 04:40:22;;;;;;;27.02;11.55;;;4.00;99.90;;;;;;4183268;28;20045;-81
2023/01/29 04:42:26;;;;;;;25.75;11.38;;;4.00;99.90;;;;;;4183467;28;20049;-81
2023/01/29 04:44:41;;;;;;;27.55;11.68;;;4.00;99.90;;;;;;4182317;28;20486;-81
2023/01/29 04:46:56;;;;;;;23.42;11.27;;;4.00;99.90;;;;;;4183496;28;20528;-81
2023/01/29 04:49:26;;;;;;;23.83;10.07;;;4.20;99.90;;;;;;4182910;28;20464;-81
2023/01/29 04:51:45;;;;;;;23.42;11.82;;;4.00;99.90;;;;;;4183103;28;20046;-81
2023/01/29 04:54:03;;;;;;;24.08;11.68;;;4.00;99.90;;;;;;4183608;28;20048;-81
2023/01/29 04:56:10;;;;;;;28.58;10.93;;;4.00;99.90;;;;;;4183169;28;20063;-81
2023/01/29 04:58:13;;;;;;;25.35;12.10;;;4.00;99.90;;;;;;4183282;28;20048;-81
2023/01/29 05:00:18;;;;;;;26.27;11.32;;;4.90;99.90;;;;;;4183291;28;20098;-81
2023/01/29 05:02:21;;;;;;;24.05;10.68;;;4.00;99.90;;;;;;4183083;28;20048;-81
2023/01/29 05:04:23;;;;;;;27.65;12.68;;;4.40;99.90;;;;;;4181478;28;20056;-81
2023/01/29 05:06:25;;;;;;;24.98;11.85;;;4.20;99.90;;;;;;4183221;28;20170;-81
2023/01/29 05:08:29;;;;;;;25.20;12.38;;;4.00;99.90;;;;;;4183127;28;20041;-81
2023/01/29 05:10:30;;;;;;;25.92;12.43;;;4.00;99.90;;;;;;4182850;28;20041;-81
2023/01/29 05:12:31;;;;;;;22.35;10.10;;;4.00;99.90;;;;;;4182256;28;20053;-81
2023/01/29 05:14:34;;;;;;;28.65;12.27;;;3.90;99.90;;;;;;4182956;28;20048;-81
2023/01/29 05:16:42;;;;;;;22.95;10.48;;;4.10;99.90;;;;;;4183127;28;20124;-81
2023/01/29 05:18:43;;;;;;;26.30;12.57;;;4.00;99.90;;;;;;4182914;28;20041;-81
2023/01/29 05:20:46;;;;;;;27.80;11.00;;;4.00;99.90;;;;;;4182639;28;20601;-82
2023/01/29 05:22:48;;;;;;;25.02;11.23;;;4.80;99.90;;;;;;4182527;28;20060;-81
2023/01/29 05:24:49;;;;;;;25.23;11.98;;;4.00;99.90;;;;;;4182337;28;20036;-81
2023/01/29 05:29:12;;;;;;;24.77;11.18;;;4.40;99.90;;;;;;4182355;28;20102;-81
2023/01/29 05:31:13;;;;;;;26.80;12.23;;;4.00;99.90;;;;;;4182875;28;20040;-81
2023/01/29 05:33:22;;;;;;;23.05;10.95;;;4.60;99.90;;;;;;4182491;28;20041;-81
2023/01/29 05:35:22;;;;;;;24.08;11.40;;;4.00;99.90;;;;;;4182374;28;20053;-81
2023/01/29 05:37:23;;;;;;;26.27;11.82;;;4.30;99.90;;;;;;4182376;28;20051;-81
2023/01/29 05:39:24;;;;;;;25.90;11.30;;;4.00;99.90;;;;;;4182852;28;20486;-81
2023/01/29 05:41:25;;;;;;;27.55;12.63;;;4.00;99.90;;;;;;4182379;28;20060;-81
2023/01/29 05:43:26;;;;;;;24.40;11.27;;;4.00;99.90;;;;;;4181995;28;20478;-81
2023/01/29 05:45:28;;;;;;;25.25;10.95;;;4.00;99.90;;;;;;4182330;28;20102;-81
2023/01/29 05:47:29;;;;;;;29.13;12.20;;;4.10;99.90;;;;;;4182610;28;20611;-81
2023/01/29 05:49:30;;;;;;;26.88;11.65;;;4.00;99.90;;;;;;4182359;28;20083;-81
2023/01/29 05:51:31;;;;;;;23.73;11.20;;;4.60;99.90;;;;;;4182484;28;20037;-81
2023/01/29 05:53:32;;;;;;;28.38;12.18;;;4.00;99.90;;;;;;4185869;28;20055;-81
2023/01/29 05:55:33;;;;;;;26.48;11.93;;;4.90;99.90;;;;;;4181814;28;20071;-81
2023/01/29 05:57:35;;;;;;;26.73;11.85;;;4.00;99.90;;;;;;4182402;28;20082;-80
2023/01/29 05:59:35;;;;;;;29.45;11.23;;;4.70;99.90;;;;;;4182554;28;20048;-81
2023/01/29 06:01:36;;;;;;;22.25;11.23;;;5.00;99.90;;;;;;4181153;28;20029;-81
2023/01/29 06:03:38;;;;;;;25.15;11.68;;;3.90;99.90;;;;;;4182391;28;20040;-81
2023/01/29 06:05:40;;;;;;;22.63;11.07;;;4.40;99.90;;;;;;4182282;28;20405;-81
2023/01/29 06:07:44;;;;;;;28.20;10.85;;;4.70;99.90;;;;;;4181191;28;20044;-81
2023/01/29 06:09:46;;;;;;;27.80;11.32;;;4.90;99.90;;;;;;4181755;28;20528;-81
2023/01/29 06:11:48;;;;;;;24.83;11.38;;;4.00;99.90;;;;;;4182318;28;20040;-81
2023/01/29 06:13:49;;;;;;;24.20;11.43;;;4.70;99.90;;;;;;4180977;28;20467;-80
2023/01/29 06:15:51;;;;;;;25.17;11.35;;;4.90;99.90;;;;;;4182247;28;20059;-81
2023/01/29 06:17:53;;;;;;;22.55;9.95;;;4.30;99.90;;;;;;4180739;28;20106;-81
2023/01/29 06:19:54;;;;;;;25.17;10.38;;;4.80;99.90;;;;;;4182444;28;20052;-81
2023/01/29 06:21:55;;;;;;;23.25;10.60;;;4.00;99.90;;;;;;4181734;28;20422;-81
2023/01/29 06:23:56;;;;;;;24.80;11.00;;;4.50;99.90;;;;;;4181134;28;20071;-81
2023/01/29 06:26:09;;;;;;;21.42;10.40;;;4.50;99.90;;;;;;4181711;28;20505;-81
2023/01/29 06:28:12;;;;;;;24.63;10.85;;;3.90;99.90;;;;;;4181811;28;20041;-81
2023/01/29 06:30:14;;;;;;;21.23;9.70;;;4.00;99.90;;;;;;4182266;28;20060;-81
2023/01/29 06:32:14;;;;;;;24.42;10.95;;;4.00;99.90;;;;;;4180872;28;20145;-81
2023/01/29 06:34:15;;;;;;;23.20;11.45;;;4.80;99.90;;;;;;4181125;28;20052;-81
2023/01/29 06:36:18;;;;;;;22.65;11.38;;;4.90;99.90;;;;;;4182042;28;20115;-80
2023/01/29 06:38:18;;;;;;;28.52;12.70;;;4.00;99.90;;;;;;4181824;28;20486;-81
2023/01/29 06:40:19;;;;;;;26.30;12.00;;;4.00;99.90;;;;;;4182243;28;20103;-81
2023/01/29 06:42:26;;;;;;;24.77;11.25;;;4.60;99.90;;;;;;4178660;28;20052;-81
2023/01/29 06:44:28;;;;;;;26.98;12.65;;;4.90;99.90;;;;;;4165061;28;20099;-81
2023/01/29 06:46:29;;;;;;;23.52;12.32;;;4.70;99.90;;;;;;4164272;28;20045;-81
2023/01/29 06:48:29;;;;;;;28.42;12.70;;;4.60;99.90;;;;;;4165901;28;20042;-82
2023/01/29 06:50:31;;;;;;;30.67;13.55;;;4.60;99.90;;;;;;4165385;28;20120;-81
2023/01/29 06:52:32;;;;;;;28.35;14.02;;;5.00;99.90;;;;;;4181490;28;20076;-82
2023/01/29 06:54:32;;;;;;;30.80;13.23;;;4.80;99.90;;;;;;4181366;28;20106;-81
2023/01/29 06:56:34;;;;;;;28.63;13.07;;;4.70;99.90;;;;;;4181710;28;20506;-81
2023/01/29 06:58:36;;;;;;;31.75;14.27;;;4.10;99.90;;;;;;4182047;28;20041;-81
2023/01/29 07:00:39;;;;;;;31.67;15.00;;;4.10;99.90;;;;;;4182533;28;20049;-82
2023/01/29 07:02:39;;;;;;;29.58;13.38;;;5.20;99.90;;;;;;4183421;28;20072;-81
2023/01/29 07:04:41;;;;;;;32.70;13.57;;;4.10;99.90;;;;;;4182923;28;20060;-82
2023/01/29 07:06:42;;;;;;;34.13;14.85;;;4.10;99.90;;;;;;4183077;28;20048;-81
2023/01/29 07:08:43;;;;;;;29.42;14.48;;;4.10;99.90;;;;;;4183435;28;20045;-81
2023/01/29 07:10:45;;;;;;;36.33;15.80;;;4.70;99.90;;;;;;4182091;28;20041;-81
2023/01/29 07:12:45;;;;;;;36.13;14.25;;;4.10;99.90;;;;;;4183165;28;20041;-82
2023/01/29 07:14:46;;;;;;;31.58;14.77;;;4.40;99.90;;;;;;4183534;28;20542;-81
2023/01/29 07:16:47;;;;;;;36.15;15.32;;;4.10;99.90;;;;;;4178549;28;20049;-81
2023/01/29 07:18:48;;;;;;;32.38;15.48;;;3.60;99.90;;;;;;4175878;28;20120;-82
2023/01/29 07:20:48;;;;;;;30.67;14.98;;;5.20;99.90;;;;;;4167224;28;20057;-81
2023/01/29 07:22:49;;;;;;;29.27;13.60;;;5.10;99.90;;;;;;4149165;28;20137;-82
2023/01/29 07:24:51;;;;;;;29.20;14.02;;;5.10;99.90;;;;;;4166725;28;20048;-82
2023/01/29 07:26:52;;;;;;;31.15;13.73;;;4.00;99.90;;;;;;4164424;28;20045;-82
2023/01/29 07:28:54;;;;;;;26.83;14.35;;;4.00;99.90;;;;;;4165477;28;20041;-82
2023/01/29 07:30:59;;;;;;;27.92;14.15;;;5.00;99.90;;;;;;4165498;28;20041;-82
2023/01/29 07:33:04;;;;;;;27.55;13.05;;;4.00;99.90;;;;;;4164384;28;20042;-82
2023/01/29 07:35:05;;;;;;;26.58;13.40;;;4.00;99.90;;;;;;4164997;28;20088;-82
2023/01/29 07:37:12;;;;;;;29.55;14.57;;;4.00;99.90;;;;;;4167846;28;20576;-82
2023/01/29 07:39:13;;;;;;;30.08;13.93;;;4.50;99.90;;;;;;4168039;28;20045;-82
2023/01/29 07:41:13;;;;;;;28.42;13.35;;;4.00;99.90;;;;;;4168066;28;20041;-82
2023/01/29 07:43:15;;;;;;;27.00;13.40;;;4.00;99.90;;;;;;4166786;28;20046;-82
2023/01/29 07:45:16;;;;;;;30.50;13.48;;;4.00;99.90;;;;;;4167214;28;20053;-82
2023/01/29 07:47:18;;;;;;;29.30;13.60;;;4.00;99.90;;;;;;4168830;28;20081;-82
2023/01/29 07:49:28;;;;;;;28.33;13.52;;;4.00;99.90;;;;;;4152709;28;20049;-82
2023/01/29 07:51:29;;;;;;;28.08;13.52;;;4.00;99.90;;;;;;4168295;28;20041;-82
2023/01/29 07:53:30;;;;;;;30.67;14.75;;;4.80;99.90;;;;;;4168054;28;20052;-82
2023/01/29 07:55:31;;;;;;;32.17;13.90;;;4.60;99.90;;;;;;4168074;28;20398;-82
2023/01/29 07:57:32;;;;;;;31.20;15.07;;;4.60;99.90;;;;;;4168276;28;20053;-82
2023/01/29 07:59:34;;;;;;;34.65;16.52;;;4.00;99.90;;;;;;4167993;28;20052;-82
2023/01/29 08:01:34;;;;;;;29.77;14.80;;;4.10;99.90;;;;;;4168415;28;20120;-82
2023/01/29 08:03:36;;;;;;;32.15;16.15;;;4.00;99.90;;;;;;4168247;28;20057;-82
2023/01/29 08:05:36;;;;;;;34.05;15.52;;;4.70;99.90;;;;;;4168016;28;20059;-82
2023/01/29 08:07:37;;;;;;;33.92;16.75;;;5.00;99.90;;;;;;4167267;28;20127;-82
2023/01/29 08:09:39;;;;;;;35.70;16.40;;;4.40;99.90;;;;;;4168378;28;20047;-82
2023/01/29 08:11:39;;;;;;;33.45;16.67;;;4.00;99.90;;;;;;4167237;28;20092;-82
2023/01/29 08:13:40;;;;;;;33.33;16.70;;;4.90;99.90;;;;;;4167624;28;20253;-82
2023/01/29 08:15:44;;;;;;;32.30;16.27;;;4.00;99.90;;;;;;4167865;28;20128;-83
2023/01/29 08:17:45;;;;;;;33.03;15.90;;;4.00;99.90;;;;;;4167226;28;20091;-82
2023/01/29 08:19:46;;;;;;;34.10;16.80;;;5.00;99.90;;;;;;4149837;28;20486;-83
2023/01/29 08:21:47;;;;;;;31.20;15.13;;;4.10;99.90;;;;;;4167731;28;20045;-82
2023/01/29 08:23:47;;;;;;;30.27;15.38;;;4.10;99.90;;;;;;4166663;28;20041;-82
2023/01/29 08:25:48;;;;;;;35.63;16.05;;;4.20;99.90;;;;;;4167541;28;20041;-82
2023/01/29 08:27:50;;;;;;;30.17;14.63;;;4.60;99.90;;;;;;4167378;28;20045;-82
2023/01/29 08:29:50;;;;;;;34.13;16.98;;;4.30;99.90;;;;;;4167258;28;20046;-82
2023/01/29 08:31:52;;;;;;;37.72;17.83;;;4.90;99.90;;;;;;4167081;28;20084;-82
2023/01/29 08:33:54;;;;;;;31.55;15.63;;;4.00;99.90;;;;;;4166579;28;20139;-82
2023/01/29 08:35:56;;;;;;;34.53;15.82;;;4.00;99.90;;;;;;4166229;28;20422;-82
2023/01/29 08:38:02;;;;;;;35.58;16.98;;;5.00;99.90;;;;;;4165986;28;20120;-82
2023/01/29 08:40:04;;;;;;;40.15;17.05;;;4.10;99.90;;;;;;4165720;28;20057;-82
2023/01/29 08:42:05;;;;;;;36.30;16.48;;;4.00;99.90;;;;;;4166857;28;20041;-82
2023/01/29 08:44:07;;;;;;;37.28;17.60;;;5.00;99.90;;;;;;4167569;28;20061;-81
2023/01/29 08:46:09;;;;;;;40.25;17.55;;;4.00;99.90;;;;;;4167638;28;20487;-82
2023/01/29 08:48:10;;;;;;;32.05;15.80;;;4.00;99.90;;;;;;4166705;28;20482;-82
2023/01/29 08:50:11;;;;;;;37.58;16.75;;;4.00;99.90;;;;;;4167838;28;20096;-82
2023/01/29 08:52:11;;;;;;;35.17;17.15;;;4.00;99.90;;;;;;4167313;28;20045;-82
2023/01/29 08:54:12;;;;;;;36.85;17.70;;;4.00;99.90;;;;;;4167448;28;20092;-82
2023/01/29 08:56:15;;;;;;;39.13;18.10;;;4.00;99.90;;;;;;4167623;28;20053;-82
2023/01/29 08:58:15;;;;;;;33.15;16.48;;;4.70;99.90;;;;;;4166732;28;20042;-82
2023/01/29 09:00:16;;;;;;;34.20;17.65;;;4.00;99.90;;;;;;4166823;28;20609;-81
2023/01/29 09:02:18;;;;;;;34.63;16.60;;;4.00;99.90;;;;;;4166569;28;20045;-82
2023/01/29 09:04:19;;;;;;;34.58;16.70;;;4.00;99.90;;;;;;4167046;28;20494;-82
2023/01/29 09:06:20;;;;;;;36.22;17.23;;;4.80;99.90;;;;;;4166733;28;20087;-82
2023/01/29 09:08:20;;;;;;;36.45;17.25;;;4.10;99.90;;;;;;4165363;28;20065;-82
2023/01/29 09:10:21;;;;;;;33.15;15.70;;;4.10;99.90;;;;;;4166017;28;20482;-82
2023/01/29 09:12:22;;;;;;;36.13;17.77;;;4.10;99.90;;;;;;4180778;28;20045;-82
2023/01/29 09:14:23;;;;;;;38.20;18.15;;;4.80;99.90;;;;;;4183039;28;20485;-82
2023/01/29 09:16:23;;;;;;;37.22;17.17;;;4.10;99.90;;;;;;4181704;28;20545;-82
2023/01/29 09:18:24;;;;;;;32.35;16.20;;;4.20;99.90;;;;;;4181102;28;20514;-82
2023/01/29 09:20:25;;;;;;;38.45;17.40;;;4.20;99.90;;;;;;4181965;28;20402;-82
2023/01/29 09:22:26;;;;;;;34.00;16.80;;;4.20;99.90;;;;;;4182850;28;20148;-82
2023/01/29 09:24:26;;;;;;;36.72;17.67;;;4.70;99.90;;;;;;4183161;28;20074;-83
2023/01/29 09:26:27;;;;;;;35.00;17.02;;;4.20;99.90;;;;;;4183137;28;20045;-83
2023/01/29 09:28:29;;;;;;;37.63;16.75;;;4.80;99.90;;;;;;4182886;28;20037;-82
2023/01/29 09:30:32;;;;;;;31.67;16.17;;;4.20;99.90;;;;;;4182454;28;20502;-83
2023/01/29 09:32:35;;;;;;;40.83;17.98;;;4.30;99.90;;;;;;4181318;28;20075;-83
2023/01/29 09:34:36;;;;;;;33.35;15.88;;;4.70;99.90;;;;;;4182023;28;20075;-83
2023/01/29 09:36:37;;;;;;;38.53;17.08;;;4.30;99.90;;;;;;4182264;28;20055;-82
2023/01/29 09:38:38;;;;;;;35.03;16.60;;;4.40;99.90;;;;;;4174539;28;20040;-82
2023/01/29 09:41:15;;;;;;;33.42;15.57;;;4.40;99.90;;;;;;4170395;28;20045;-82
2023/01/29 09:43:24;;;;;;;30.73;15.23;;;4.40;99.90;;;;;;4182570;28;20473;-82
2023/01/29 09:45:27;;;;;;;35.50;14.57;;;4.40;99.90;;;;;;4181335;28;20499;-82
2023/01/29 09:47:30;;;;;;;33.28;15.45;;;4.80;99.90;;;;;;4184976;28;20033;-82
2023/01/29 09:49:40;;;;;;;33.95;15.93;;;4.90;99.90;;;;;;4181289;28;20053;-82
2023/01/29 09:51:46;;;;;;;33.08;16.38;;;4.40;99.90;;;;;;4182273;28;20052;-82
2023/01/29 09:54:18;;;;;;;36.78;15.95;;;5.10;99.90;;;;;;4182512;28;20053;-82
2023/01/29 09:56:20;;;;;;;34.03;15.25;;;4.40;99.90;;;;;;4181996;28;20572;-83
2023/01/29 09:58:32;;;;;;;37.17;15.35;;;4.50;99.90;;;;;;4181670;28;20067;-82
2023/01/29 10:00:43;;;;;;;34.30;16.65;;;4.50;99.90;;;;;;4182519;28;20041;-82
2023/01/29 10:03:02;;;;;;;32.88;15.52;;;4.50;99.90;;;;;;4182303;28;20057;-82
2023/01/29 10:05:23;;;;;;;33.60;15.32;;;4.50;99.90;;;;;;4181978;28;20052;-82
2023/01/29 10:07:38;;;;;;;34.65;14.60;;;4.50;99.90;;;;;;4182146;28;20409;-82
2023/01/29 10:10:42;;;;;;;34.83;15.20;;;4.50;99.90;;;;;;4182440;28;20040;-82
2023/01/29 10:13:08;;;;;;;38.72;16.38;;;4.50;99.90;;;;;;4126686;28;20532;-82
2023/01/29 10:16:06;;;;;;;37.28;18.00;;;4.50;99.90;;;;;;4175978;28;20057;-82
2023/01/29 10:18:12;;;;;;;28.38;12.15;;;4.60;99.90;;;;;;4130596;28;20181;-82
2023/01/29 10:20:19;;;;;;;34.83;16.10;;;4.80;99.90;;;;;;4147293;28;20076;-82
2023/01/29 10:22:58;;;;;;;39.45;16.33;;;4.60;99.90;;;;;;4153164;28;20060;-82
2023/01/29 10:25:10;;;;;;;35.00;15.88;;;4.60;99.90;;;;;;4147239;28;20046;-82
2023/01/29 10:27:16;;;;;;;33.35;14.45;;;4.60;99.90;;;;;;4170924;28;20060;-82
2023/01/29 10:29:19;;;;;;;32.92;16.45;;;4.60;99.90;;;;;;4183591;28;20041;-82
2023/01/29 10:31:31;;;;;;;42.28;17.63;;;4.90;99.90;;;;;;4184958;28;20136;-82
2023/01/29 10:33:38;;;;;;;34.85;16.13;;;4.60;99.90;;;;;;4181957;28;20045;-82
2023/01/29 10:35:45;;;;;;;39.53;17.63;;;4.60;99.90;;;;;;4183478;28;20057;-82
2023/01/29 10:37:46;;;;;;;36.50;16.60;;;4.90;99.90;;;;;;4181674;28;20056;-83
2023/01/29 10:39:47;;;;;;;38.40;17.65;;;4.90;99.90;;;;;;4181266;28;20052;-83
2023/01/29 10:42:14;;;;;;;31.13;16.35;;;4.80;99.90;;;;;;4180245;28;20077;-82
2023/01/29 10:44:40;;;;;;;33.85;15.63;;;4.70;99.90;;;;;;4181842;28;20060;-83
2023/01/29 10:47:13;;;;;;;35.20;15.00;;;4.70;99.90;;;;;;4181995;28;20413;-82
2023/01/29 10:49:44;;;;;;;41.22;16.05;;;4.70;99.90;;;;;;4181412;28;20055;-82
2023/01/29 10:51:58;;;;;;;35.25;16.23;;;4.70;99.90;;;;;;4181966;28;20374;-82
2023/01/29 10:54:19;;;;;;;36.67;15.63;;;4.70;99.90;;;;;;4180361;28;20056;-82
2023/01/29 10:56:34;;;;;;;30.95;14.77;;;4.80;99.90;;;;;;4180512;28;20098;-82
2023/01/29 10:58:54;;;;;;;31.52;14.52;;;4.80;99.90;;;;;;4181645;28;20052;-82
2023/01/29 11:00:57;;;;;;;36.58;16.13;;;4.80;99.90;;;;;;4181479;28;20048;-82
2023/01/29 11:03:12;;;;;;;35.75;15.25;;;4.80;99.90;;;;;;4181326;28;20048;-82
2023/01/29 11:05:36;;;;;;;32.05;15.40;;;4.80;99.90;;;;;;4181439;28;20502;-82
2023/01/29 11:07:37;;;;;;;31.15;14.27;;;4.80;99.90;;;;;;4181309;28;20053;-83
2023/01/29 11:09:45;;;;;;;29.92;14.65;;;5.00;99.90;;;;;;4181287;28;20482;-82
2023/01/29 11:11:51;;;;;;;38.15;16.17;;;5.20;99.90;;;;;;4183736;28;20053;-82
2023/01/29 11:13:56;;;;;;;38.60;16.25;;;4.70;99.90;;;;;;4184861;28;20091;-82
2023/01/29 11:15:57;;;;;;;38.53;16.42;;;4.70;99.90;;;;;;4183164;28;20055;-82
2023/01/29 11:18:16;;;;;;;31.25;14.90;;;4.70;99.90;;;;;;4184974;28;20080;-83
2023/01/29 11:20:26;;;;;;;33.30;15.18;;;4.70;99.90;;;;;;4183400;28;20049;-83
2023/01/29 11:22:29;;;;;;;34.45;13.98;;;4.70;99.90;;;;;;4184614;28;20163;-82
2023/01/29 11:24:29;;;;;;;38.85;15.43;;;4.70;99.90;;;;;;4184372;28;20041;-82